sensor_id;sensor_type;location;lat;lon;timestamp;P1;durP1;ratioP1;P2;durP2;ratioP2
4466;SDS011;2246;42.664;23.278;2023-03-04T00:02:00;26.05;;;13.80;;
4466;SDS011;2246;42.664;23.278;2023-03-04T00:04:27;26.50;;;13.18;;
4466;SDS011;2246;42.664;23.278;2023-03-04T00:06:53;20.63;;;12.13;;
4466;SDS011;2246;42.664;23.278;2023-03-04T00:09:19;22.63;;;12.43;;
4466;SDS011;2246;42.664;23.278;2023-03-04T00:11:45;25.48;;;13.45;;
4466;SDS011;2246;42.664;23.278;2023-03-04T00:14:11;26.15;;;13.10;;
4466;SDS011;2246;42.664;23.278;2023-03-04T00:16:37;25.63;;;13.25;;
4466;SDS011;2246;42.664;23.278;2023-03-04T00:19:03;27.35;;;13.77;;
4466;SDS011;2246;42.664;23.278;2023-03-04T00:21:30;22.15;;;12.07;;
4466;SDS011;2246;42.664;23.278;2023-03-04T00:23:56;20.95;;;11.35;;
4466;SDS011;2246;42.664;23.278;2023-03-04T00:26:22;27.75;;;12.73;;
4466;SDS011;2246;42.664;23.278;2023-03-04T00:28:48;24.83;;;13.40;;
4466;SDS011;2246;42.664;23.278;2023-03-04T00:31:14;25.42;;;12.70;;
4466;SDS011;2246;42.664;23.278;2023-03-04T00:33:40;21.85;;;12.23;;
4466;SDS011;2246;42.664;23.278;2023-03-04T00:36:08;24.10;;;12.55;;
4466;SDS011;2246;42.664;23.278;2023-03-04T00:38:34;22.77;;;12.30;;
4466;SDS011;2246;42.664;23.278;2023-03-04T00:41:00;20.52;;;11.45;;
4466;SDS011;2246;42.664;23.278;2023-03-04T00:43:27;20.42;;;10.93;;
4466;SDS011;2246;42.664;23.278;2023-03-04T00:45:53;24.38;;;10.77;;
4466;SDS011;2246;42.664;23.278;2023-03-04T00:48:19;22.25;;;11.73;;
4466;SDS011;2246;42.664;23.278;2023-03-04T00:50:46;21.67;;;11.85;;
4466;SDS011;2246;42.664;23.278;2023-03-04T00:53:13;19.25;;;10.88;;
4466;SDS011;2246;42.664;23.278;2023-03-04T00:55:39;20.85;;;11.15;;
4466;SDS011;2246;42.664;23.278;2023-03-04T00:58:05;23.95;;;12.18;;
4466;SDS011;2246;42.664;23.278;2023-03-04T01:00:31;21.70;;;11.75;;
4466;SDS011;2246;42.664;23.278;2023-03-04T01:02:58;23.90;;;12.15;;
4466;SDS011;2246;42.664;23.278;2023-03-04T01:05:24;22.63;;;11.93;;
4466;SDS011;2246;42.664;23.278;2023-03-04T01:07:50;19.80;;;10.20;;
4466;SDS011;2246;42.664;23.278;2023-03-04T01:10:16;22.63;;;11.75;;
4466;SDS011;2246;42.664;23.278;2023-03-04T01:12:43;22.83;;;11.82;;
4466;SDS011;2246;42.664;23.278;2023-03-04T01:15:10;21.23;;;11.45;;
4466;SDS011;2246;42.664;23.278;2023-03-04T01:17:36;23.90;;;11.43;;
4466;SDS011;2246;42.664;23.278;2023-03-04T01:20:03;23.08;;;11.55;;
4466;SDS011;2246;42.664;23.278;2023-03-04T01:22:29;18.60;;;10.73;;
4466;SDS011;2246;42.664;23.278;2023-03-04T01:24:56;24.95;;;12.02;;
4466;SDS011;2246;42.664;23.278;2023-03-04T01:27:22;22.85;;;12.65;;
4466;SDS011;2246;42.664;23.278;2023-03-04T01:29:48;23.75;;;12.32;;
4466;SDS011;2246;42.664;23.278;2023-03-04T01:32:14;22.00;;;12.05;;
4466;SDS011;2246;42.664;23.278;2023-03-04T01:34:40;24.35;;;12.15;;
4466;SDS011;2246;42.664;23.278;2023-03-04T01:37:06;24.92;;;12.18;;
4466;SDS011;2246;42.664;23.278;2023-03-04T01:39:33;25.40;;;12.20;;
4466;SDS011;2246;42.664;23.278;2023-03-04T01:41:59;21.38;;;11.35;;
4466;SDS011;2246;42.664;23.278;2023-03-04T01:44:25;21.98;;;11.95;;
4466;SDS011;2246;42.664;23.278;2023-03-04T01:46:52;23.73;;;12.02;;
4466;SDS011;2246;42.664;23.278;2023-03-04T01:49:19;31.67;;;13.13;;
4466;SDS011;2246;42.664;23.278;2023-03-04T01:51:47;20.95;;;11.52;;
4466;SDS011;2246;42.664;23.278;2023-03-04T01:54:13;25.27;;;12.32;;
4466;SDS011;2246;42.664;23.278;2023-03-04T01:56:39;25.83;;;13.07;;
4466;SDS011;2246;42.664;23.278;2023-03-04T01:59:11;30.48;;;13.60;;
4466;SDS011;2246;42.664;23.278;2023-03-04T02:01:38;26.05;;;12.88;;
4466;SDS011;2246;42.664;23.278;2023-03-04T02:04:04;26.08;;;12.40;;
4466;SDS011;2246;42.664;23.278;2023-03-04T02:06:31;27.42;;;11.88;;
4466;SDS011;2246;42.664;23.278;2023-03-04T02:08:57;23.58;;;11.63;;
4466;SDS011;2246;42.664;23.278;2023-03-04T02:11:23;26.92;;;11.90;;
4466;SDS011;2246;42.664;23.278;2023-03-04T02:13:50;26.30;;;12.32;;
4466;SDS011;2246;42.664;23.278;2023-03-04T02:16:16;26.23;;;12.75;;
4466;SDS011;2246;42.664;23.278;2023-03-04T02:18:42;25.30;;;12.38;;
4466;SDS011;2246;42.664;23.278;2023-03-04T02:26:23;24.20;;;12.40;;
4466;SDS011;2246;42.664;23.278;2023-03-04T02:28:50;26.80;;;12.55;;
4466;SDS011;2246;42.664;23.278;2023-03-04T02:33:46;27.45;;;12.30;;
4466;SDS011;2246;42.664;23.278;2023-03-04T02:36:12;24.35;;;12.63;;
4466;SDS011;2246;42.664;23.278;2023-03-04T02:38:38;26.75;;;13.23;;
4466;SDS011;2246;42.664;23.278;2023-03-04T02:41:07;27.85;;;13.80;;
4466;SDS011;2246;42.664;23.278;2023-03-04T02:43:36;25.88;;;12.90;;
4466;SDS011;2246;42.664;23.278;2023-03-04T02:46:02;23.63;;;12.70;;
4466;SDS011;2246;42.664;23.278;2023-03-04T02:48:29;24.73;;;12.77;;
4466;SDS011;2246;42.664;23.278;2023-03-04T02:50:55;27.95;;;12.65;;
4466;SDS011;2246;42.664;23.278;2023-03-04T02:53:22;24.42;;;12.07;;
4466;SDS011;2246;42.664;23.278;2023-03-04T02:55:49;21.55;;;10.48;;
4466;SDS011;2246;42.664;23.278;2023-03-04T02:58:16;23.15;;;11.48;;
4466;SDS011;2246;42.664;23.278;2023-03-04T03:00:42;22.33;;;11.45;;
4466;SDS011;2246;42.664;23.278;2023-03-04T03:03:08;25.25;;;12.73;;
4466;SDS011;2246;42.664;23.278;2023-03-04T03:05:35;26.33;;;13.18;;
4466;SDS011;2246;42.664;23.278;2023-03-04T03:08:02;25.90;;;13.23;;
4466;SDS011;2246;42.664;23.278;2023-03-04T03:10:28;23.10;;;11.93;;
4466;SDS011;2246;42.664;23.278;2023-03-04T03:12:54;26.05;;;11.85;;
4466;SDS011;2246;42.664;23.278;2023-03-04T03:15:20;29.55;;;13.98;;
4466;SDS011;2246;42.664;23.278;2023-03-04T03:17:46;26.35;;;13.35;;
4466;SDS011;2246;42.664;23.278;2023-03-04T03:20:13;28.80;;;14.68;;
4466;SDS011;2246;42.664;23.278;2023-03-04T03:22:39;30.42;;;14.35;;
4466;SDS011;2246;42.664;23.278;2023-03-04T03:25:06;25.13;;;12.73;;
4466;SDS011;2246;42.664;23.278;2023-03-04T03:27:32;27.55;;;12.38;;
4466;SDS011;2246;42.664;23.278;2023-03-04T03:29:58;32.13;;;15.73;;
4466;SDS011;2246;42.664;23.278;2023-03-04T03:32:24;35.88;;;17.33;;
4466;SDS011;2246;42.664;23.278;2023-03-04T03:34:50;32.45;;;16.88;;
4466;SDS011;2246;42.664;23.278;2023-03-04T03:37:17;35.75;;;16.52;;
4466;SDS011;2246;42.664;23.278;2023-03-04T03:39:43;33.15;;;15.55;;
4466;SDS011;2246;42.664;23.278;2023-03-04T03:42:09;45.35;;;21.25;;
4466;SDS011;2246;42.664;23.278;2023-03-04T03:44:35;29.60;;;15.50;;
4466;SDS011;2246;42.664;23.278;2023-03-04T03:47:01;33.22;;;15.85;;
4466;SDS011;2246;42.664;23.278;2023-03-04T03:49:27;31.88;;;14.95;;
4466;SDS011;2246;42.664;23.278;2023-03-04T03:51:54;31.45;;;15.95;;
4466;SDS011;2246;42.664;23.278;2023-03-04T03:54:20;27.88;;;13.73;;
4466;SDS011;2246;42.664;23.278;2023-03-04T03:56:46;33.35;;;14.35;;
4466;SDS011;2246;42.664;23.278;2023-03-04T03:59:12;29.70;;;15.00;;
4466;SDS011;2246;42.664;23.278;2023-03-04T04:01:38;32.60;;;14.93;;
4466;SDS011;2246;42.664;23.278;2023-03-04T04:04:04;31.13;;;14.60;;
4466;SDS011;2246;42.664;23.278;2023-03-04T04:06:31;35.42;;;14.95;;
4466;SDS011;2246;42.664;23.278;2023-03-04T04:08:57;27.58;;;12.40;;
4466;SDS011;2246;42.664;23.278;2023-03-04T04:11:23;25.70;;;12.38;;
4466;SDS011;2246;42.664;23.278;2023-03-04T04:13:49;29.73;;;13.88;;
4466;SDS011;2246;42.664;23.278;2023-03-04T04:16:15;27.45;;;13.30;;
4466;SDS011;2246;42.664;23.278;2023-03-04T04:18:41;28.50;;;13.85;;
4466;SDS011;2246;42.664;23.278;2023-03-04T04:21:08;26.85;;;13.73;;
4466;SDS011;2246;42.664;23.278;2023-03-04T04:23:34;28.73;;;13.23;;
4466;SDS011;2246;42.664;23.278;2023-03-04T04:26:00;26.40;;;12.27;;
4466;SDS011;2246;42.664;23.278;2023-03-04T04:28:26;25.80;;;12.63;;
4466;SDS011;2246;42.664;23.278;2023-03-04T04:30:52;28.17;;;12.60;;
4466;SDS011;2246;42.664;23.278;2023-03-04T04:33:18;28.83;;;13.52;;
4466;SDS011;2246;42.664;23.278;2023-03-04T04:35:45;25.90;;;12.88;;
4466;SDS011;2246;42.664;23.278;2023-03-04T04:38:11;24.77;;;12.77;;
4466;SDS011;2246;42.664;23.278;2023-03-04T04:40:37;28.98;;;13.57;;
4466;SDS011;2246;42.664;23.278;2023-03-04T04:43:03;24.63;;;11.50;;
4466;SDS011;2246;42.664;23.278;2023-03-04T04:45:29;26.73;;;12.95;;
4466;SDS011;2246;42.664;23.278;2023-03-04T04:47:55;31.40;;;12.85;;
4466;SDS011;2246;42.664;23.278;2023-03-04T04:50:22;33.42;;;13.98;;
4466;SDS011;2246;42.664;23.278;2023-03-04T04:52:48;26.25;;;12.35;;
4466;SDS011;2246;42.664;23.278;2023-03-04T04:55:14;26.52;;;11.50;;
4466;SDS011;2246;42.664;23.278;2023-03-04T04:57:40;25.45;;;11.80;;
4466;SDS011;2246;42.664;23.278;2023-03-04T05:00:07;24.15;;;10.55;;
4466;SDS011;2246;42.664;23.278;2023-03-04T05:02:34;20.63;;;10.20;;
4466;SDS011;2246;42.664;23.278;2023-03-04T05:05:00;17.98;;;8.60;;
4466;SDS011;2246;42.664;23.278;2023-03-04T05:07:27;22.63;;;9.02;;
4466;SDS011;2246;42.664;23.278;2023-03-04T05:09:53;15.65;;;8.10;;
4466;SDS011;2246;42.664;23.278;2023-03-04T05:12:19;16.52;;;8.18;;
4466;SDS011;2246;42.664;23.278;2023-03-04T05:14:45;17.95;;;8.25;;
4466;SDS011;2246;42.664;23.278;2023-03-04T05:17:11;19.20;;;8.90;;
4466;SDS011;2246;42.664;23.278;2023-03-04T05:19:37;17.40;;;8.68;;
4466;SDS011;2246;42.664;23.278;2023-03-04T05:22:03;18.17;;;8.95;;
4466;SDS011;2246;42.664;23.278;2023-03-04T05:24:29;18.95;;;10.10;;
4466;SDS011;2246;42.664;23.278;2023-03-04T05:26:56;21.80;;;11.02;;
4466;SDS011;2246;42.664;23.278;2023-03-04T05:29:22;21.45;;;9.50;;
4466;SDS011;2246;42.664;23.278;2023-03-04T05:31:48;19.63;;;8.38;;
4466;SDS011;2246;42.664;23.278;2023-03-04T05:34:14;19.67;;;9.73;;
4466;SDS011;2246;42.664;23.278;2023-03-04T05:36:40;18.60;;;9.18;;
4466;SDS011;2246;42.664;23.278;2023-03-04T05:39:06;26.60;;;11.05;;
4466;SDS011;2246;42.664;23.278;2023-03-04T05:41:32;25.50;;;10.98;;
4466;SDS011;2246;42.664;23.278;2023-03-04T05:43:59;27.65;;;10.73;;
4466;SDS011;2246;42.664;23.278;2023-03-04T05:46:25;29.08;;;11.75;;
4466;SDS011;2246;42.664;23.278;2023-03-04T05:48:51;30.08;;;12.73;;
4466;SDS011;2246;42.664;23.278;2023-03-04T05:51:17;27.23;;;11.45;;
4466;SDS011;2246;42.664;23.278;2023-03-04T05:53:44;23.73;;;10.93;;
4466;SDS011;2246;42.664;23.278;2023-03-04T05:56:11;24.98;;;10.40;;
4466;SDS011;2246;42.664;23.278;2023-03-04T05:58:38;23.45;;;9.13;;
4466;SDS011;2246;42.664;23.278;2023-03-04T06:01:04;15.00;;;8.15;;
4466;SDS011;2246;42.664;23.278;2023-03-04T06:03:31;17.65;;;8.30;;
4466;SDS011;2246;42.664;23.278;2023-03-04T06:05:57;18.17;;;8.70;;
4466;SDS011;2246;42.664;23.278;2023-03-04T06:08:23;28.15;;;10.40;;
4466;SDS011;2246;42.664;23.278;2023-03-04T06:10:54;24.77;;;11.18;;
4466;SDS011;2246;42.664;23.278;2023-03-04T06:13:20;30.10;;;13.88;;
4466;SDS011;2246;42.664;23.278;2023-03-04T06:15:46;42.05;;;14.93;;
4466;SDS011;2246;42.664;23.278;2023-03-04T06:18:12;30.40;;;13.82;;
4466;SDS011;2246;42.664;23.278;2023-03-04T06:20:39;35.15;;;14.18;;
4466;SDS011;2246;42.664;23.278;2023-03-04T06:23:05;35.35;;;14.25;;
4466;SDS011;2246;42.664;23.278;2023-03-04T06:25:31;30.95;;;14.23;;
4466;SDS011;2246;42.664;23.278;2023-03-04T06:27:57;27.98;;;13.60;;
4466;SDS011;2246;42.664;23.278;2023-03-04T06:30:23;27.17;;;12.80;;
4466;SDS011;2246;42.664;23.278;2023-03-04T06:32:49;28.58;;;13.57;;
4466;SDS011;2246;42.664;23.278;2023-03-04T06:35:16;27.60;;;13.82;;
4466;SDS011;2246;42.664;23.278;2023-03-04T06:37:42;33.13;;;13.60;;
4466;SDS011;2246;42.664;23.278;2023-03-04T06:40:08;31.88;;;13.98;;
4466;SDS011;2246;42.664;23.278;2023-03-04T06:42:35;29.15;;;12.50;;
4466;SDS011;2246;42.664;23.278;2023-03-04T06:45:01;29.90;;;13.27;;
4466;SDS011;2246;42.664;23.278;2023-03-04T06:47:27;29.13;;;13.18;;
4466;SDS011;2246;42.664;23.278;2023-03-04T06:49:53;30.58;;;12.25;;
4466;SDS011;2246;42.664;23.278;2023-03-04T06:52:19;31.17;;;13.35;;
4466;SDS011;2246;42.664;23.278;2023-03-04T06:54:45;29.38;;;13.68;;
4466;SDS011;2246;42.664;23.278;2023-03-04T06:57:12;25.90;;;13.27;;
4466;SDS011;2246;42.664;23.278;2023-03-04T06:59:38;28.02;;;12.40;;
4466;SDS011;2246;42.664;23.278;2023-03-04T07:02:05;24.30;;;11.95;;
4466;SDS011;2246;42.664;23.278;2023-03-04T07:04:31;27.77;;;12.50;;
4466;SDS011;2246;42.664;23.278;2023-03-04T07:06:57;23.92;;;11.65;;
4466;SDS011;2246;42.664;23.278;2023-03-04T07:09:23;20.45;;;10.80;;
4466;SDS011;2246;42.664;23.278;2023-03-04T07:11:49;19.88;;;10.23;;
4466;SDS011;2246;42.664;23.278;2023-03-04T07:14:15;25.30;;;10.05;;
4466;SDS011;2246;42.664;23.278;2023-03-04T07:16:41;21.20;;;10.38;;
4466;SDS011;2246;42.664;23.278;2023-03-04T07:19:07;20.55;;;10.40;;
4466;SDS011;2246;42.664;23.278;2023-03-04T07:21:33;18.13;;;10.00;;
4466;SDS011;2246;42.664;23.278;2023-03-04T07:24:00;19.50;;;10.10;;
4466;SDS011;2246;42.664;23.278;2023-03-04T07:26:26;22.73;;;10.30;;
4466;SDS011;2246;42.664;23.278;2023-03-04T07:28:52;24.17;;;10.20;;
4466;SDS011;2246;42.664;23.278;2023-03-04T07:31:22;21.70;;;10.57;;
4466;SDS011;2246;42.664;23.278;2023-03-04T07:33:49;22.48;;;11.18;;
4466;SDS011;2246;42.664;23.278;2023-03-04T07:36:15;17.80;;;8.88;;
4466;SDS011;2246;42.664;23.278;2023-03-04T07:38:44;16.67;;;7.72;;
4466;SDS011;2246;42.664;23.278;2023-03-04T07:41:10;19.20;;;9.33;;
4466;SDS011;2246;42.664;23.278;2023-03-04T07:43:36;17.23;;;8.73;;
4466;SDS011;2246;42.664;23.278;2023-03-04T07:46:02;16.65;;;8.85;;
4466;SDS011;2246;42.664;23.278;2023-03-04T07:48:29;18.20;;;7.65;;
4466;SDS011;2246;42.664;23.278;2023-03-04T07:51:01;18.90;;;8.52;;
4466;SDS011;2246;42.664;23.278;2023-03-04T07:53:27;19.42;;;8.15;;
4466;SDS011;2246;42.664;23.278;2023-03-04T07:55:54;20.48;;;8.68;;
4466;SDS011;2246;42.664;23.278;2023-03-04T07:58:20;17.35;;;8.00;;
4466;SDS011;2246;42.664;23.278;2023-03-04T08:00:46;17.10;;;8.02;;
4466;SDS011;2246;42.664;23.278;2023-03-04T08:03:12;18.42;;;8.45;;
4466;SDS011;2246;42.664;23.278;2023-03-04T08:05:38;12.27;;;6.93;;
4466;SDS011;2246;42.664;23.278;2023-03-04T08:08:04;16.42;;;8.18;;
4466;SDS011;2246;42.664;23.278;2023-03-04T08:10:30;16.35;;;7.97;;
4466;SDS011;2246;42.664;23.278;2023-03-04T08:12:56;21.42;;;9.30;;
4466;SDS011;2246;42.664;23.278;2023-03-04T08:15:22;19.60;;;9.73;;
4466;SDS011;2246;42.664;23.278;2023-03-04T08:17:51;17.73;;;9.25;;
4466;SDS011;2246;42.664;23.278;2023-03-04T08:20:17;18.75;;;8.90;;
4466;SDS011;2246;42.664;23.278;2023-03-04T08:22:43;20.13;;;8.88;;
4466;SDS011;2246;42.664;23.278;2023-03-04T08:25:09;17.55;;;8.27;;
4466;SDS011;2246;42.664;23.278;2023-03-04T08:27:35;24.98;;;9.00;;
4466;SDS011;2246;42.664;23.278;2023-03-04T08:30:02;17.05;;;9.05;;
4466;SDS011;2246;42.664;23.278;2023-03-04T08:32:28;16.73;;;8.85;;
4466;SDS011;2246;42.664;23.278;2023-03-04T08:34:54;20.60;;;10.45;;
4466;SDS011;2246;42.664;23.278;2023-03-04T08:37:21;28.50;;;11.00;;
4466;SDS011;2246;42.664;23.278;2023-03-04T08:39:47;22.35;;;11.27;;
4466;SDS011;2246;42.664;23.278;2023-03-04T08:42:13;23.38;;;10.90;;
4466;SDS011;2246;42.664;23.278;2023-03-04T08:44:39;30.25;;;11.90;;
4466;SDS011;2246;42.664;23.278;2023-03-04T08:47:05;23.23;;;11.05;;
4466;SDS011;2246;42.664;23.278;2023-03-04T08:49:34;28.15;;;12.68;;
4466;SDS011;2246;42.664;23.278;2023-03-04T08:52:00;25.88;;;12.48;;
4466;SDS011;2246;42.664;23.278;2023-03-04T08:54:26;33.40;;;12.23;;
4466;SDS011;2246;42.664;23.278;2023-03-04T08:56:52;30.85;;;13.07;;
4466;SDS011;2246;42.664;23.278;2023-03-04T08:59:18;27.08;;;11.90;;
4466;SDS011;2246;42.664;23.278;2023-03-04T09:01:44;21.73;;;10.30;;
4466;SDS011;2246;42.664;23.278;2023-03-04T09:04:11;26.60;;;10.07;;
4466;SDS011;2246;42.664;23.278;2023-03-04T09:06:37;19.13;;;9.70;;
4466;SDS011;2246;42.664;23.278;2023-03-04T09:09:03;18.33;;;9.05;;
4466;SDS011;2246;42.664;23.278;2023-03-04T09:11:29;24.27;;;10.73;;
4466;SDS011;2246;42.664;23.278;2023-03-04T09:13:55;22.35;;;9.88;;
4466;SDS011;2246;42.664;23.278;2023-03-04T09:16:21;23.58;;;10.35;;
4466;SDS011;2246;42.664;23.278;2023-03-04T09:18:48;21.35;;;9.05;;
4466;SDS011;2246;42.664;23.278;2023-03-04T09:21:14;23.73;;;9.32;;
4466;SDS011;2246;42.664;23.278;2023-03-04T09:23:40;20.23;;;9.57;;
4466;SDS011;2246;42.664;23.278;2023-03-04T09:26:39;20.33;;;9.85;;
4466;SDS011;2246;42.664;23.278;2023-03-04T09:28:59;21.65;;;9.45;;
4466;SDS011;2246;42.664;23.278;2023-03-04T09:31:25;21.55;;;9.98;;
4466;SDS011;2246;42.664;23.278;2023-03-04T09:33:52;23.70;;;10.82;;
4466;SDS011;2246;42.664;23.278;2023-03-04T09:36:19;23.48;;;11.02;;
4466;SDS011;2246;42.664;23.278;2023-03-04T09:38:45;21.48;;;11.02;;
4466;SDS011;2246;42.664;23.278;2023-03-04T09:41:15;24.80;;;11.32;;
4466;SDS011;2246;42.664;23.278;2023-03-04T09:43:43;22.13;;;10.85;;
4466;SDS011;2246;42.664;23.278;2023-03-04T09:46:11;23.35;;;11.23;;
4466;SDS011;2246;42.664;23.278;2023-03-04T09:48:43;23.48;;;10.25;;
4466;SDS011;2246;42.664;23.278;2023-03-04T09:51:16;19.92;;;10.73;;
4466;SDS011;2246;42.664;23.278;2023-03-04T09:56:12;17.58;;;9.93;;
4466;SDS011;2246;42.664;23.278;2023-03-04T10:01:16;16.65;;;9.07;;
4466;SDS011;2246;42.664;23.278;2023-03-04T10:03:45;24.20;;;9.25;;
4466;SDS011;2246;42.664;23.278;2023-03-04T10:06:16;17.85;;;9.65;;
4466;SDS011;2246;42.664;23.278;2023-03-04T10:13:47;19.85;;;8.25;;
4466;SDS011;2246;42.664;23.278;2023-03-04T10:16:17;21.65;;;9.15;;
4466;SDS011;2246;42.664;23.278;2023-03-04T10:18:48;18.45;;;9.27;;
4466;SDS011;2246;42.664;23.278;2023-03-04T10:21:25;24.33;;;9.57;;
4466;SDS011;2246;42.664;23.278;2023-03-04T10:23:56;25.15;;;9.85;;
4466;SDS011;2246;42.664;23.278;2023-03-04T10:26:22;19.65;;;9.55;;
4466;SDS011;2246;42.664;23.278;2023-03-04T10:28:49;17.45;;;9.02;;
4466;SDS011;2246;42.664;23.278;2023-03-04T10:33:41;22.80;;;11.10;;
4466;SDS011;2246;42.664;23.278;2023-03-04T10:38:53;24.90;;;10.85;;
4466;SDS011;2246;42.664;23.278;2023-03-04T10:41:22;28.05;;;13.30;;
4466;SDS011;2246;42.664;23.278;2023-03-04T10:46:16;24.90;;;10.60;;
4466;SDS011;2246;42.664;23.278;2023-03-04T10:48:42;23.13;;;11.00;;
4466;SDS011;2246;42.664;23.278;2023-03-04T10:51:15;29.38;;;12.05;;
4466;SDS011;2246;42.664;23.278;2023-03-04T10:53:43;23.83;;;10.77;;
4466;SDS011;2246;42.664;23.278;2023-03-04T10:58:56;32.95;;;12.90;;
4466;SDS011;2246;42.664;23.278;2023-03-04T11:01:40;28.15;;;11.73;;
4466;SDS011;2246;42.664;23.278;2023-03-04T11:04:14;26.17;;;11.43;;
4466;SDS011;2246;42.664;23.278;2023-03-04T11:06:42;24.23;;;10.93;;
4466;SDS011;2246;42.664;23.278;2023-03-04T11:09:19;30.40;;;11.38;;
4466;SDS011;2246;42.664;23.278;2023-03-04T11:11:46;24.52;;;11.45;;
4466;SDS011;2246;42.664;23.278;2023-03-04T11:16:59;25.33;;;12.13;;
4466;SDS011;2246;42.664;23.278;2023-03-04T11:19:36;31.02;;;12.68;;
4466;SDS011;2246;42.664;23.278;2023-03-04T11:22:03;32.67;;;13.27;;
4466;SDS011;2246;42.664;23.278;2023-03-04T11:24:29;26.02;;;12.20;;
4466;SDS011;2246;42.664;23.278;2023-03-04T11:29:34;26.60;;;12.75;;
4466;SDS011;2246;42.664;23.278;2023-03-04T11:37:33;32.70;;;13.40;;
4466;SDS011;2246;42.664;23.278;2023-03-04T11:40:04;28.08;;;12.73;;
4466;SDS011;2246;42.664;23.278;2023-03-04T11:42:36;32.88;;;13.63;;
4466;SDS011;2246;42.664;23.278;2023-03-04T11:45:10;26.27;;;12.32;;
4466;SDS011;2246;42.664;23.278;2023-03-04T11:50:29;33.70;;;13.35;;
4466;SDS011;2246;42.664;23.278;2023-03-04T11:55:42;30.30;;;14.27;;
4466;SDS011;2246;42.664;23.278;2023-03-04T12:00:45;32.15;;;13.68;;
4466;SDS011;2246;42.664;23.278;2023-03-04T12:05:43;32.58;;;14.00;;
4466;SDS011;2246;42.664;23.278;2023-03-04T12:21:11;25.83;;;13.00;;
4466;SDS011;2246;42.664;23.278;2023-03-04T12:26:09;29.77;;;12.75;;
4466;SDS011;2246;42.664;23.278;2023-03-04T12:31:15;23.25;;;12.77;;
4466;SDS011;2246;42.664;23.278;2023-03-04T12:33:54;24.63;;;12.98;;
4466;SDS011;2246;42.664;23.278;2023-03-04T12:41:38;26.55;;;14.00;;
4466;SDS011;2246;42.664;23.278;2023-03-04T12:44:16;28.85;;;13.05;;
4466;SDS011;2246;42.664;23.278;2023-03-04T12:49:39;24.80;;;13.18;;
4466;SDS011;2246;42.664;23.278;2023-03-04T12:56:58;27.88;;;13.68;;
4466;SDS011;2246;42.664;23.278;2023-03-04T12:59:25;29.35;;;13.63;;
4466;SDS011;2246;42.664;23.278;2023-03-04T13:12:16;27.33;;;13.02;;
4466;SDS011;2246;42.664;23.278;2023-03-04T13:15:17;29.85;;;13.43;;
4466;SDS011;2246;42.664;23.278;2023-03-04T13:17:42;27.15;;;12.23;;
4466;SDS011;2246;42.664;23.278;2023-03-04T13:22:57;30.13;;;13.68;;
4466;SDS011;2246;42.664;23.278;2023-03-04T13:51:28;27.42;;;12.82;;
4466;SDS011;2246;42.664;23.278;2023-03-04T13:56:22;24.67;;;13.20;;
4466;SDS011;2246;42.664;23.278;2023-03-04T13:58:49;31.10;;;14.00;;
4466;SDS011;2246;42.664;23.278;2023-03-04T14:01:23;26.83;;;14.23;;
4466;SDS011;2246;42.664;23.278;2023-03-04T14:03:49;37.92;;;14.27;;
4466;SDS011;2246;42.664;23.278;2023-03-04T14:08:42;30.15;;;14.63;;
4466;SDS011;2246;42.664;23.278;2023-03-04T14:11:12;30.25;;;15.00;;
4466;SDS011;2246;42.664;23.278;2023-03-04T14:13:39;34.05;;;13.75;;
4466;SDS011;2246;42.664;23.278;2023-03-04T14:16:05;29.40;;;14.68;;
4466;SDS011;2246;42.664;23.278;2023-03-04T14:18:31;26.33;;;13.93;;
4466;SDS011;2246;42.664;23.278;2023-03-04T14:20:57;28.50;;;13.80;;
4466;SDS011;2246;42.664;23.278;2023-03-04T14:23:29;32.67;;;15.32;;
4466;SDS011;2246;42.664;23.278;2023-03-04T14:26:02;32.75;;;15.13;;
4466;SDS011;2246;42.664;23.278;2023-03-04T14:28:28;31.55;;;15.15;;
4466;SDS011;2246;42.664;23.278;2023-03-04T14:30:55;26.52;;;14.63;;
4466;SDS011;2246;42.664;23.278;2023-03-04T14:33:25;29.85;;;13.88;;
4466;SDS011;2246;42.664;23.278;2023-03-04T14:35:53;27.85;;;15.05;;
4466;SDS011;2246;42.664;23.278;2023-03-04T14:38:22;28.10;;;13.35;;
4466;SDS011;2246;42.664;23.278;2023-03-04T14:40:50;32.10;;;14.80;;
4466;SDS011;2246;42.664;23.278;2023-03-04T14:43:17;29.48;;;14.27;;
4466;SDS011;2246;42.664;23.278;2023-03-04T14:45:44;25.30;;;13.75;;
4466;SDS011;2246;42.664;23.278;2023-03-04T14:48:15;26.17;;;13.75;;
4466;SDS011;2246;42.664;23.278;2023-03-04T14:50:47;32.05;;;14.25;;
4466;SDS011;2246;42.664;23.278;2023-03-04T14:53:15;33.22;;;14.63;;
4466;SDS011;2246;42.664;23.278;2023-03-04T14:56:14;26.27;;;14.20;;
4466;SDS011;2246;42.664;23.278;2023-03-04T14:58:37;29.80;;;13.77;;
4466;SDS011;2246;42.664;23.278;2023-03-04T15:01:16;28.95;;;13.68;;
4466;SDS011;2246;42.664;23.278;2023-03-04T15:03:55;30.02;;;13.63;;
4466;SDS011;2246;42.664;23.278;2023-03-04T15:06:23;33.53;;;13.95;;
4466;SDS011;2246;42.664;23.278;2023-03-04T15:08:56;29.02;;;14.02;;
4466;SDS011;2246;42.664;23.278;2023-03-04T15:11:24;28.88;;;13.98;;
4466;SDS011;2246;42.664;23.278;2023-03-04T15:13:54;33.65;;;15.20;;
4466;SDS011;2246;42.664;23.278;2023-03-04T15:16:22;30.95;;;15.70;;
4466;SDS011;2246;42.664;23.278;2023-03-04T15:18:59;30.92;;;14.90;;
4466;SDS011;2246;42.664;23.278;2023-03-04T15:21:27;32.37;;;15.37;;
4466;SDS011;2246;42.664;23.278;2023-03-04T15:23:53;31.25;;;15.38;;
4466;SDS011;2246;42.664;23.278;2023-03-04T15:26:19;30.60;;;15.77;;
4466;SDS011;2246;42.664;23.278;2023-03-04T15:28:46;29.45;;;14.07;;
4466;SDS011;2246;42.664;23.278;2023-03-04T15:31:19;31.05;;;13.90;;
4466;SDS011;2246;42.664;23.278;2023-03-04T15:33:46;36.15;;;16.52;;
4466;SDS011;2246;42.664;23.278;2023-03-04T15:36:16;33.13;;;15.70;;
4466;SDS011;2246;42.664;23.278;2023-03-04T15:38:43;28.98;;;15.10;;
4466;SDS011;2246;42.664;23.278;2023-03-04T15:41:11;33.58;;;14.75;;
4466;SDS011;2246;42.664;23.278;2023-03-04T15:43:40;33.05;;;14.13;;
4466;SDS011;2246;42.664;23.278;2023-03-04T15:46:07;34.83;;;15.10;;
4466;SDS011;2246;42.664;23.278;2023-03-04T15:48:34;34.97;;;15.75;;
4466;SDS011;2246;42.664;23.278;2023-03-04T15:51:00;34.55;;;14.80;;
4466;SDS011;2246;42.664;23.278;2023-03-04T15:55:58;30.08;;;15.45;;
4466;SDS011;2246;42.664;23.278;2023-03-04T15:58:25;36.05;;;16.55;;
4466;SDS011;2246;42.664;23.278;2023-03-04T16:00:52;29.25;;;15.18;;
4466;SDS011;2246;42.664;23.278;2023-03-04T16:03:18;33.95;;;15.18;;
4466;SDS011;2246;42.664;23.278;2023-03-04T16:05:46;38.90;;;16.15;;
4466;SDS011;2246;42.664;23.278;2023-03-04T16:08:13;29.38;;;15.88;;
4466;SDS011;2246;42.664;23.278;2023-03-04T16:10:39;33.33;;;15.48;;
4466;SDS011;2246;42.664;23.278;2023-03-04T16:15:33;31.90;;;14.85;;
4466;SDS011;2246;42.664;23.278;2023-03-04T16:17:59;37.00;;;15.45;;
4466;SDS011;2246;42.664;23.278;2023-03-04T16:20:27;32.53;;;15.88;;
4466;SDS011;2246;42.664;23.278;2023-03-04T16:22:57;35.10;;;15.88;;
4466;SDS011;2246;42.664;23.278;2023-03-04T16:25:24;38.90;;;16.70;;
4466;SDS011;2246;42.664;23.278;2023-03-04T16:27:51;36.63;;;17.15;;
4466;SDS011;2246;42.664;23.278;2023-03-04T16:30:19;36.28;;;16.38;;
4466;SDS011;2246;42.664;23.278;2023-03-04T16:32:45;38.97;;;16.42;;
4466;SDS011;2246;42.664;23.278;2023-03-04T16:35:12;41.22;;;18.48;;
4466;SDS011;2246;42.664;23.278;2023-03-04T16:37:39;38.17;;;16.85;;
4466;SDS011;2246;42.664;23.278;2023-03-04T16:40:05;40.72;;;17.63;;
4466;SDS011;2246;42.664;23.278;2023-03-04T16:42:32;35.88;;;17.67;;
4466;SDS011;2246;42.664;23.278;2023-03-04T16:44:58;30.50;;;16.98;;
4466;SDS011;2246;42.664;23.278;2023-03-04T16:47:24;32.90;;;16.40;;